Time;durP1;ratioP1;P1;durP2;ratioP2;P2;SDS_P1;SDS_P2;PMS_P1;PMS_P2;Temp;Humidity;BMP_temperature;BMP_pressure;BME280_temperature;BME280_humidity;BME280_pressure;Samples;Min_cycle;Max_cycle;Signal;HPM_P1;HPM_P2
2021/08/22 00:01:12;;;;;;;1999.90;999.90;;;16.90;99.90;;;;;;4995379;28;20035;-88
2021/08/22 00:03:38;;;;;;;1999.90;999.90;;;17.00;99.90;;;;;;4995327;28;20027;-87
2021/08/22 00:06:03;;;;;;;1999.90;999.90;;;17.00;99.90;;;;;;4995524;28;20050;-85
2021/08/22 00:08:29;;;;;;;1999.90;999.90;;;17.00;99.90;;;;;;4995103;28;20018;-86
2021/08/22 00:10:55;;;;;;;1999.90;999.90;;;16.90;99.90;;;;;;4995643;28;20474;-88
2021/08/22 00:13:22;;;;;;;1999.90;999.90;;;16.90;99.90;;;;;;4995518;28;20065;-85
2021/08/22 00:15:48;;;;;;;1999.90;999.90;;;16.90;99.90;;;;;;4995672;28;20470;-88
2021/08/22 00:18:14;;;;;;;1999.90;999.90;;;16.90;99.90;;;;;;4995534;28;20076;-85
2021/08/22 00:20:39;;;;;;;1999.90;999.90;;;16.90;99.90;;;;;;4995356;28;20030;-86
2021/08/22 00:23:05;;;;;;;1999.90;999.90;;;16.90;99.90;;;;;;4995365;28;20030;-87
2021/08/22 00:25:31;;;;;;;1999.90;999.90;;;16.80;99.90;;;;;;4995579;28;20022;-86
2021/08/22 00:27:57;;;;;;;1999.90;999.90;;;16.80;99.90;;;;;;4995512;28;20060;-88
2021/08/22 00:30:23;;;;;;;1999.90;999.90;;;16.80;99.90;;;;;;4995297;28;20027;-85
2021/08/22 00:32:49;;;;;;;1999.90;999.90;;;16.70;99.90;;;;;;4995156;28;20041;-88
2021/08/22 00:35:16;;;;;;;1999.90;999.90;;;16.70;99.90;;;;;;4995102;28;20029;-87
2021/08/22 00:37:42;;;;;;;1999.90;999.90;;;16.80;99.90;;;;;;4994935;28;20022;-87
2021/08/22 00:40:09;;;;;;;1999.90;999.90;;;16.80;99.90;;;;;;4995134;28;20110;-87
2021/08/22 00:42:35;;;;;;;1999.90;999.90;;;16.80;99.90;;;;;;4994896;28;20084;-86
2021/08/22 00:45:08;;;;;;;1999.90;999.90;;;16.80;99.90;;;;;;4995125;28;20022;-85
2021/08/22 00:47:37;;;;;;;1999.90;999.90;;;16.80;99.90;;;;;;4994486;28;20053;-87
2021/08/22 00:50:04;;;;;;;1999.90;999.90;;;16.80;99.90;;;;;;4994977;28;20026;-87
2021/08/22 00:52:33;;;;;;;1999.90;999.90;;;16.70;99.90;;;;;;4993916;28;20520;-85
2021/08/22 00:55:05;;;;;;;1999.90;999.90;;;16.70;99.90;;;;;;4994268;28;20022;-84
2021/08/22 00:57:32;;;;;;;1999.90;999.90;;;16.70;99.90;;;;;;4994397;28;20084;-87
2021/08/22 01:00:09;;;;;;;1999.90;999.90;;;16.70;99.90;;;;;;4994600;28;20027;-86
2021/08/22 01:02:41;;;;;;;1999.90;999.90;;;16.70;99.90;;;;;;4994421;28;20034;-88
2021/08/22 01:05:25;;;;;;;1999.90;999.90;;;16.60;99.90;;;;;;4994596;28;20033;-86
2021/08/22 01:08:00;;;;;;;1999.90;999.90;;;16.60;99.90;;;;;;4994464;28;20033;-86
2021/08/22 01:10:27;;;;;;;1999.90;999.90;;;16.60;99.90;;;;;;4994391;28;20493;-85
2021/08/22 01:13:04;;;;;;;1999.90;999.90;;;16.50;99.90;;;;;;4994278;28;20196;-86
2021/08/22 01:15:34;;;;;;;1999.90;999.90;;;16.50;99.90;;;;;;4994264;28;20031;-85
2021/08/22 01:18:01;;;;;;;1999.90;999.90;;;16.40;99.90;;;;;;4994367;28;20414;-86
2021/08/22 01:20:33;;;;;;;1999.90;999.90;;;16.40;99.90;;;;;;4994435;28;20109;-89
2021/08/22 01:23:01;;;;;;;1999.90;999.90;;;16.30;99.90;;;;;;4994326;28;20411;-86
2021/08/22 01:25:28;;;;;;;1999.90;999.90;;;16.40;99.90;;;;;;4994123;28;20030;-85
2021/08/22 01:27:55;;;;;;;1999.90;999.90;;;16.30;99.90;;;;;;4994156;28;20029;-87
2021/08/22 01:30:21;;;;;;;1999.90;999.90;;;16.30;99.90;;;;;;4994185;28;20486;-84
2021/08/22 01:32:49;;;;;;;1999.90;999.90;;;16.20;99.90;;;;;;4993773;28;20093;-86
2021/08/22 01:35:22;;;;;;;1999.90;999.90;;;16.20;99.90;;;;;;4993914;28;20018;-86
2021/08/22 01:37:49;;;;;;;1999.90;999.90;;;16.10;99.90;;;;;;4995210;28;20373;-88
2021/08/22 01:40:21;;;;;;;1999.90;999.90;;;16.10;99.90;;;;;;4994102;28;20106;-85
2021/08/22 01:42:48;;;;;;;1999.90;999.90;;;16.10;99.90;;;;;;4994075;28;20032;-85
2021/08/22 01:45:16;;;;;;;1999.90;999.90;;;16.10;99.90;;;;;;4993963;28;20092;-86
2021/08/22 01:47:45;;;;;;;1999.90;999.90;;;16.10;99.90;;;;;;4994134;28;20026;-87
2021/08/22 01:50:12;;;;;;;1999.90;999.90;;;16.10;99.90;;;;;;4994007;28;20116;-86
2021/08/22 01:52:38;;;;;;;1999.90;999.90;;;16.10;99.90;;;;;;4993369;28;20120;-88
2021/08/22 01:55:06;;;;;;;1999.90;999.90;;;16.10;99.90;;;;;;4993980;28;20027;-86
2021/08/22 01:57:33;;;;;;;1999.90;999.90;;;16.00;99.90;;;;;;4993876;28;20026;-86
2021/08/22 01:59:59;;;;;;;1999.90;999.90;;;16.00;99.90;;;;;;4994067;28;20018;-88
2021/08/22 02:02:25;;;;;;;1999.90;999.90;;;16.00;99.90;;;;;;4993562;28;20022;-87
2021/08/22 02:04:59;;;;;;;1999.90;999.90;;;16.10;99.90;;;;;;4993985;28;20062;-86
2021/08/22 02:07:30;;;;;;;1999.90;999.90;;;16.00;99.90;;;;;;4996393;28;20034;-87
2021/08/22 02:10:07;;;;;;;1999.90;999.90;;;16.00;99.90;;;;;;4997505;28;20022;-88
2021/08/22 02:12:34;;;;;;;1999.90;999.90;;;15.90;99.90;;;;;;4998637;28;20041;-85
2021/08/22 02:15:04;;;;;;;1999.90;999.90;;;16.00;99.90;;;;;;4997230;28;20409;-86
2021/08/22 02:17:44;;;;;;;1999.90;999.90;;;16.00;99.90;;;;;;4997534;28;20030;-86
2021/08/22 02:20:10;;;;;;;1999.90;999.90;;;16.00;99.90;;;;;;4997319;28;20494;-87
2021/08/22 02:22:36;;;;;;;1999.90;999.90;;;16.00;99.90;;;;;;4998260;28;20056;-87
2021/08/22 02:25:03;;;;;;;1999.90;999.90;;;16.00;99.90;;;;;;4997092;28;20038;-86
2021/08/22 02:27:30;;;;;;;1999.90;999.90;;;15.90;99.90;;;;;;4997365;28;20026;-85
2021/08/22 02:29:56;;;;;;;1999.90;999.90;;;16.00;99.90;;;;;;4997247;28;20018;-87
2021/08/22 02:32:23;;;;;;;1999.90;999.90;;;16.00;99.90;;;;;;4997007;28;20034;-86
2021/08/22 02:34:52;;;;;;;1999.90;999.90;;;16.00;99.90;;;;;;4997177;28;20548;-86
2021/08/22 02:37:18;;;;;;;1999.90;999.90;;;15.90;99.90;;;;;;4996912;28;20093;-87
2021/08/22 02:39:47;;;;;;;1999.90;999.90;;;15.90;99.90;;;;;;4997271;28;20018;-87
2021/08/22 02:42:14;;;;;;;1999.90;999.90;;;15.90;99.90;;;;;;4997887;28;20058;-85
2021/08/22 02:44:40;;;;;;;1999.90;999.90;;;15.80;99.90;;;;;;4998209;28;20019;-88
2021/08/22 02:47:05;;;;;;;1999.90;999.90;;;15.80;99.90;;;;;;4996870;28;20497;-87
2021/08/22 02:49:31;;;;;;;1999.90;999.90;;;15.80;99.90;;;;;;4997068;28;20413;-86
2021/08/22 02:51:57;;;;;;;1999.90;999.90;;;15.80;99.90;;;;;;4996285;28;20046;-85
2021/08/22 02:54:22;;;;;;;1999.90;999.90;;;15.80;99.90;;;;;;4996823;28;20057;-87
2021/08/22 02:56:48;;;;;;;1999.90;999.90;;;15.70;99.90;;;;;;4996472;28;20027;-86
2021/08/22 02:59:14;;;;;;;1999.90;999.90;;;15.70;99.90;;;;;;4997708;28;20033;-85
2021/08/22 03:01:39;;;;;;;1999.90;999.90;;;15.70;99.90;;;;;;4996682;28;20030;-85
2021/08/22 03:04:06;;;;;;;1999.90;999.90;;;15.70;99.90;;;;;;4996531;28;20089;-88
2021/08/22 03:06:32;;;;;;;1999.90;999.90;;;15.70;99.90;;;;;;4996585;28;20023;-87
2021/08/22 03:08:57;;;;;;;1999.90;999.90;;;15.70;99.90;;;;;;4996379;28;20066;-88
2021/08/22 03:11:23;;;;;;;1999.90;999.90;;;15.70;99.90;;;;;;4996110;28;20030;-88
2021/08/22 03:13:49;;;;;;;1999.90;999.90;;;15.70;99.90;;;;;;4995700;28;20038;-86
2021/08/22 03:16:15;;;;;;;1999.90;999.90;;;15.70;99.90;;;;;;4996348;28;20026;-86
2021/08/22 03:18:41;;;;;;;1999.90;999.90;;;15.70;99.90;;;;;;4995856;28;20037;-86
2021/08/22 03:21:07;;;;;;;1999.90;999.90;;;15.70;99.90;;;;;;4996580;28;20031;-87
2021/08/22 03:23:33;;;;;;;1999.90;999.90;;;15.60;99.90;;;;;;4996254;28;20121;-86
2021/08/22 03:25:59;;;;;;;1999.90;999.90;;;15.60;99.90;;;;;;4996391;28;20112;-86
2021/08/22 03:28:27;;;;;;;1999.90;999.90;;;15.70;99.90;;;;;;4996243;28;20031;-87
2021/08/22 03:30:53;;;;;;;1999.90;999.90;;;15.70;99.90;;;;;;4996011;28;20019;-85
2021/08/22 03:33:19;;;;;;;1999.90;999.90;;;15.60;99.90;;;;;;4995687;28;20089;-85
2021/08/22 03:35:45;;;;;;;1999.90;999.90;;;15.60;99.90;;;;;;4995937;28;20023;-87
2021/08/22 03:38:11;;;;;;;1999.90;999.90;;;15.60;99.90;;;;;;4995432;28;20057;-86
2021/08/22 03:40:37;;;;;;;1999.90;999.90;;;15.60;99.90;;;;;;4995820;28;20053;-85
2021/08/22 03:43:03;;;;;;;1999.90;999.90;;;15.60;99.90;;;;;;4996051;28;20030;-86
2021/08/22 03:45:28;;;;;;;1999.90;999.90;;;15.60;99.90;;;;;;4995858;28;20026;-85
2021/08/22 03:47:54;;;;;;;1999.90;999.90;;;15.60;99.90;;;;;;4995737;28;20022;-87
2021/08/22 03:50:20;;;;;;;1999.90;999.90;;;15.70;99.90;;;;;;4995755;28;20034;-87
2021/08/22 03:52:48;;;;;;;1999.90;999.90;;;15.70;99.90;;;;;;4995246;28;20046;-85
2021/08/22 03:55:14;;;;;;;1999.90;999.90;;;15.70;99.90;;;;;;4995069;28;20018;-87
2021/08/22 03:57:40;;;;;;;1999.90;999.90;;;15.70;99.90;;;;;;4995640;28;20030;-87
2021/08/22 04:00:06;;;;;;;1999.90;999.90;;;15.70;99.90;;;;;;4995400;28;20027;-86
2021/08/22 04:02:32;;;;;;;1999.90;999.90;;;15.70;99.90;;;;;;4996321;28;20080;-86
2021/08/22 04:05:00;;;;;;;1999.90;999.90;;;15.70;99.90;;;;;;4995407;28;20026;-87
2021/08/22 04:07:27;;;;;;;1999.90;999.90;;;15.70;99.90;;;;;;4995412;28;20026;-87
2021/08/22 04:09:53;;;;;;;1999.90;999.90;;;15.60;99.90;;;;;;4995555;28;20026;-87
2021/08/22 04:12:19;;;;;;;1999.90;999.90;;;15.60;99.90;;;;;;4998436;28;20037;-91
2021/08/22 04:14:45;;;;;;;1999.90;999.90;;;15.60;99.90;;;;;;4997107;28;20045;-87
2021/08/22 04:17:10;;;;;;;1999.90;999.90;;;15.60;99.90;;;;;;4998578;28;20482;-90
2021/08/22 04:19:36;;;;;;;1999.90;999.90;;;17.30;99.90;;;;;;4999330;28;20018;-90
2021/08/22 04:22:02;;;;;;;1999.90;999.90;;;17.30;99.90;;;;;;5001716;28;20026;-86
2021/08/22 04:24:31;;;;;;;1999.90;999.90;;;17.90;99.90;;;;;;5013132;28;20137;-89
2021/08/22 04:26:56;;;;;;;1999.90;999.90;;;18.20;99.90;;;;;;4995533;28;20026;-88
2021/08/22 04:29:22;;;;;;;1999.90;999.90;;;18.50;99.90;;;;;;4995786;28;20022;-86
2021/08/22 04:31:48;;;;;;;1999.90;999.90;;;18.90;99.90;;;;;;4995136;28;20475;-88
2021/08/22 04:34:14;;;;;;;1999.90;999.90;;;19.40;99.90;;;;;;4995282;28;20037;-89
2021/08/22 04:36:39;;;;;;;1999.90;999.90;;;19.60;99.90;;;;;;4995170;28;20109;-89
2021/08/22 04:39:05;;;;;;;1999.90;999.90;;;19.70;99.90;;;;;;4995228;28;20030;-89
2021/08/22 04:41:30;;;;;;;1999.90;999.90;;;19.40;99.90;;;;;;4995423;28;20022;-90
2021/08/22 04:43:56;;;;;;;1999.90;999.90;;;19.30;99.90;;;;;;4995146;28;20578;-89
2021/08/22 04:46:22;;;;;;;1999.90;999.90;;;19.40;99.90;;;;;;4996448;28;20421;-89
2021/08/22 04:48:48;;;;;;;1999.90;999.90;;;19.10;99.90;;;;;;4995205;28;20053;-90
2021/08/22 04:51:13;;;;;;;1999.90;999.90;;;19.00;99.90;;;;;;4995434;28;20038;-90
2021/08/22 04:53:39;;;;;;;1999.90;999.90;;;19.10;99.90;;;;;;4994726;28;20034;-88
2021/08/22 04:56:09;;;;;;;1999.90;999.90;;;18.80;99.90;;;;;;4994766;28;20029;-88
2021/08/22 04:58:36;;;;;;;1999.90;999.90;;;18.70;99.90;;;;;;4994460;28;20105;-90
2021/08/22 05:01:01;;;;;;;1999.90;999.90;;;18.90;99.90;;;;;;4994499;28;20486;-90
2021/08/22 05:03:27;;;;;;;1999.90;999.90;;;19.00;99.90;;;;;;4994730;28;20042;-88
2021/08/22 05:05:53;;;;;;;1999.90;999.90;;;19.30;99.90;;;;;;4994688;28;20382;-90
2021/08/22 05:08:19;;;;;;;1999.90;999.90;;;19.30;99.90;;;;;;4994862;28;20120;-89
2021/08/22 05:10:45;;;;;;;1999.90;999.90;;;19.30;99.90;;;;;;4994727;28;20031;-87
2021/08/22 05:13:11;;;;;;;1999.90;999.90;;;19.20;99.90;;;;;;4995496;28;20118;-89
2021/08/22 05:15:37;;;;;;;1999.90;999.90;;;19.50;99.90;;;;;;4994626;28;20050;-88
2021/08/22 05:18:02;;;;;;;1999.90;999.90;;;19.00;99.90;;;;;;4994766;28;20504;-89
2021/08/22 05:20:28;;;;;;;1999.90;999.90;;;19.20;99.90;;;;;;4994644;28;20019;-89
2021/08/22 05:22:54;;;;;;;1999.90;999.90;;;19.10;99.90;;;;;;4994433;28;20030;-89
2021/08/22 05:25:19;;;;;;;1999.90;999.90;;;19.30;99.90;;;;;;4994604;28;20030;-89
2021/08/22 05:27:45;;;;;;;1999.90;999.90;;;19.20;99.90;;;;;;4994994;28;20359;-90
2021/08/22 05:30:11;;;;;;;1999.90;999.90;;;19.30;99.90;;;;;;4995715;28;20026;-91
2021/08/22 05:32:36;;;;;;;1999.90;999.90;;;19.40;99.90;;;;;;4994361;28;20034;-89
2021/08/22 05:35:02;;;;;;;1999.90;999.90;;;19.20;99.90;;;;;;4994597;28;20089;-89
2021/08/22 05:37:30;;;;;;;1999.90;999.90;;;19.80;99.90;;;;;;4994586;28;20058;-90
2021/08/22 05:39:56;;;;;;;1999.90;999.90;;;19.70;99.90;;;;;;4994122;28;20022;-90
2021/08/22 05:42:21;;;;;;;1999.90;999.90;;;19.90;99.90;;;;;;4998235;28;20056;-92
2021/08/22 05:44:47;;;;;;;1999.90;999.90;;;19.50;99.90;;;;;;4998537;28;20054;-91
2021/08/22 05:47:19;;;;;;;1999.90;999.90;;;19.40;99.90;;;;;;5000801;28;20027;-87
2021/08/22 05:49:44;;;;;;;1999.90;999.90;;;19.20;99.90;;;;;;4998981;28;20029;-87
2021/08/22 05:52:10;;;;;;;1999.90;999.90;;;19.30;99.90;;;;;;4999534;28;20125;-88
2021/08/22 05:54:37;;;;;;;1999.90;999.90;;;19.40;99.90;;;;;;4998834;28;20022;-83
2021/08/22 05:57:03;;;;;;;1999.90;999.90;;;19.20;99.90;;;;;;4998108;28;20026;-82
2021/08/22 05:59:28;;;;;;;1999.90;999.90;;;18.90;99.90;;;;;;4997828;28;20027;-83
2021/08/22 06:01:54;;;;;;;1999.90;999.90;;;18.60;99.90;;;;;;4997863;28;20038;-83
2021/08/22 06:04:20;;;;;;;1999.90;999.90;;;18.40;99.90;;;;;;4997989;28;20026;-83
2021/08/22 06:06:46;;;;;;;1999.90;999.90;;;18.30;99.90;;;;;;4997792;28;20053;-83
2021/08/22 06:09:11;;;;;;;1999.90;999.90;;;18.30;99.90;;;;;;4997536;28;20113;-86
2021/08/22 06:11:37;;;;;;;1999.90;999.90;;;18.20;99.90;;;;;;4997484;28;20113;-82
2021/08/22 06:14:03;;;;;;;1999.90;999.90;;;18.20;99.90;;;;;;4997488;28;20015;-82
2021/08/22 06:16:29;;;;;;;1999.90;999.90;;;18.30;99.90;;;;;;4997692;28;20118;-84
2021/08/22 06:18:56;;;;;;;1999.90;999.90;;;18.20;99.90;;;;;;4997181;28;20473;-84
2021/08/22 06:21:22;;;;;;;1999.90;999.90;;;18.40;99.90;;;;;;4996907;28;20030;-85
2021/08/22 06:23:47;;;;;;;1999.90;999.90;;;18.40;99.90;;;;;;4997288;28;20026;-85
2021/08/22 06:26:13;;;;;;;1999.90;999.90;;;18.40;99.90;;;;;;4997278;28;20026;-85
2021/08/22 06:28:38;;;;;;;1999.90;999.90;;;18.40;99.90;;;;;;4997406;28;20034;-88
2021/08/22 06:31:04;;;;;;;1999.90;999.90;;;18.40;99.90;;;;;;4997246;28;20033;-83
2021/08/22 06:33:30;;;;;;;1999.90;999.90;;;18.50;99.90;;;;;;4996752;28;20038;-83
2021/08/22 06:36:03;;;;;;;1999.90;999.90;;;18.70;99.90;;;;;;4997080;28;20462;-80
2021/08/22 06:38:29;;;;;;;1999.90;999.90;;;18.80;99.90;;;;;;4997059;28;20493;-79
2021/08/22 06:40:55;;;;;;;1999.90;999.90;;;18.90;99.90;;;;;;4989148;28;20109;-85
2021/08/22 06:43:21;;;;;;;1999.90;999.90;;;19.30;99.90;;;;;;4988076;28;20113;-82
2021/08/22 06:45:46;;;;;;;1999.90;999.90;;;19.40;99.90;;;;;;4989485;28;20181;-81
2021/08/22 06:48:12;;;;;;;1999.90;999.90;;;19.50;99.90;;;;;;4976912;28;20398;-79
2021/08/22 06:50:43;;;;;;;1999.90;999.90;;;19.80;99.90;;;;;;4977103;28;20037;-89
2021/08/22 06:53:09;;;;;;;1999.90;999.90;;;19.90;99.90;;;;;;4992260;28;20049;-81
2021/08/22 06:55:35;;;;;;;1999.90;999.90;;;19.90;99.90;;;;;;4996391;28;20026;-79
2021/08/22 06:58:01;;;;;;;1999.90;999.90;;;20.10;99.90;;;;;;4996610;28;20026;-78
2021/08/22 07:00:27;;;;;;;1999.90;999.90;;;20.20;99.90;;;;;;4996694;28;20030;-79
2021/08/22 07:02:52;;;;;;;1999.90;999.90;;;20.50;99.90;;;;;;4997258;28;20037;-78
2021/08/22 07:05:19;;;;;;;1999.90;999.90;;;20.80;99.90;;;;;;4996741;28;20030;-78
2021/08/22 07:07:45;;;;;;;1999.90;999.90;;;21.00;99.90;;;;;;4996218;28;20462;-77
2021/08/22 07:10:11;;;;;;;1999.90;999.90;;;21.30;99.90;;;;;;4996143;28;20065;-79
2021/08/22 07:12:37;;;;;;;1999.90;999.90;;;21.50;99.90;;;;;;4996052;28;20040;-81
2021/08/22 07:15:03;;;;;;;1999.90;999.90;;;21.40;99.90;;;;;;4981719;28;20025;-83
2021/08/22 07:17:29;;;;;;;1999.90;999.90;;;21.60;99.90;;;;;;4977329;28;20031;-80
2021/08/22 07:19:55;;;;;;;1999.90;999.90;;;21.70;99.90;;;;;;4976853;28;20035;-84
2021/08/22 07:22:21;;;;;;;1999.90;999.90;;;21.80;99.90;;;;;;4976424;28;20031;-85
2021/08/22 07:24:46;;;;;;;1999.90;999.90;;;22.00;99.90;;;;;;4976388;28;20053;-78
2021/08/22 07:27:12;;;;;;;1999.90;999.90;;;22.00;99.90;;;;;;4976526;28;20027;-77
2021/08/22 07:29:38;;;;;;;1999.90;999.90;;;22.20;99.90;;;;;;4977409;28;20015;-83
2021/08/22 07:32:04;;;;;;;1999.90;999.90;;;22.30;99.90;;;;;;4974746;28;20109;-78
2021/08/22 07:34:30;;;;;;;1999.90;999.90;;;22.40;99.90;;;;;;4975083;28;20035;-79
2021/08/22 07:36:56;;;;;;;1999.90;999.90;;;22.60;99.90;;;;;;4974053;28;20011;-77
2021/08/22 07:39:22;;;;;;;1999.90;999.90;;;22.90;99.90;;;;;;4975353;28;20027;-77
2021/08/22 07:41:47;;;;;;;1999.90;999.90;;;23.00;99.90;;;;;;4975864;28;20038;-77
2021/08/22 07:44:13;;;;;;;1999.90;999.90;;;23.30;99.90;;;;;;4973854;28;20042;-78
2021/08/22 07:46:39;;;;;;;1999.90;999.90;;;23.50;99.90;;;;;;4974383;28;20356;-78
2021/08/22 07:49:04;;;;;;;1999.90;999.90;;;23.70;98.70;;;;;;4974570;28;20019;-78
2021/08/22 07:51:30;;;;;;;1999.90;999.90;;;23.80;97.40;;;;;;4973982;28;20110;-79
2021/08/22 07:53:56;;;;;;;1999.90;999.90;;;23.80;96.80;;;;;;4974448;28;20501;-78
2021/08/22 07:56:22;;;;;;;1999.90;999.90;;;24.00;96.50;;;;;;4974208;28;20560;-77
2021/08/22 07:58:48;;;;;;;1999.90;999.90;;;24.10;96.30;;;;;;4975449;28;20031;-78
2021/08/22 08:01:13;;;;;;;1999.90;999.90;;;24.20;95.90;;;;;;4974070;28;20442;-79
2021/08/22 08:03:39;;;;;;;1999.90;999.90;;;24.30;96.40;;;;;;4973159;28;20157;-77
2021/08/22 08:06:04;;;;;;;1999.90;999.90;;;24.40;95.70;;;;;;4974065;28;20031;-75
2021/08/22 08:08:30;;;;;;;1999.90;999.90;;;24.40;93.60;;;;;;4995137;28;20029;-81
2021/08/22 08:10:56;;;;;;;1999.90;999.90;;;24.70;94.30;;;;;;4995594;28;20026;-81
2021/08/22 08:13:22;;;;;;;1999.90;999.90;;;24.80;92.80;;;;;;4995488;28;20088;-88
2021/08/22 08:15:47;;;;;;;1999.90;999.90;;;24.90;93.10;;;;;;4995745;28;20069;-82
2021/08/22 08:18:13;;;;;;;1999.90;999.90;;;25.10;92.70;;;;;;4995466;28;20031;-81
2021/08/22 08:20:39;;;;;;;1999.90;999.90;;;25.30;92.50;;;;;;4995350;28;20049;-82
2021/08/22 08:23:04;;;;;;;1999.90;999.90;;;25.40;91.30;;;;;;4994616;28;20062;-81
2021/08/22 08:25:30;;;;;;;1999.90;999.90;;;25.50;89.80;;;;;;4995145;28;20385;-79
2021/08/22 08:27:56;;;;;;;1999.90;999.90;;;25.40;88.60;;;;;;4994961;28;20029;-81
2021/08/22 08:30:21;;;;;;;1999.90;999.90;;;25.30;89.20;;;;;;4995381;28;20034;-83
2021/08/22 08:32:47;;;;;;;1999.90;999.90;;;25.30;90.90;;;;;;4995159;28;20030;-82
2021/08/22 08:35:13;;;;;;;1999.90;999.90;;;25.50;91.00;;;;;;4995138;28;20073;-87
2021/08/22 08:37:41;;;;;;;1999.90;999.90;;;25.60;89.80;;;;;;5001822;28;20443;-89
2021/08/22 08:40:11;;;;;;;1999.90;999.90;;;25.60;89.70;;;;;;5004415;28;20027;-83
2021/08/22 08:42:45;;;;;;;1999.90;999.90;;;25.80;88.50;;;;;;4994521;28;20550;-77
2021/08/22 08:45:37;;;;;;;1999.90;999.90;;;25.90;86.60;;;;;;4996928;28;20029;-85
2021/08/22 08:48:03;;;;;;;1999.90;999.90;;;26.20;87.10;;;;;;5004999;28;20061;-86
2021/08/22 08:51:16;;;;;;;1999.90;999.90;;;26.30;83.80;;;;;;5007207;28;20010;-89
2021/08/22 08:54:52;;;;;;;1999.90;999.90;;;26.40;83.40;;;;;;4993798;28;20050;-87
2021/08/22 08:57:38;;;;;;;1999.90;999.90;;;26.50;81.60;;;;;;4999027;28;20426;-78
2021/08/22 09:00:16;;;;;;;1999.90;999.90;;;26.70;79.40;;;;;;4981990;28;20057;-79
2021/08/22 09:02:42;;;;;;;1999.90;999.90;;;26.70;81.70;;;;;;4994581;28;20025;-79
2021/08/22 09:05:20;;;;;;;1999.90;999.90;;;26.80;80.20;;;;;;4996321;28;20038;-83
2021/08/22 09:08:04;;;;;;;1999.90;999.90;;;26.90;80.10;;;;;;4994203;28;20370;-84
2021/08/22 09:11:17;;;;;;;1999.90;999.90;;;26.90;80.60;;;;;;4994167;28;20030;-82
2021/08/22 09:14:03;;;;;;;1999.90;999.90;;;27.00;81.10;;;;;;4999898;28;20133;-88
2021/08/22 09:17:11;;;;;;;1999.90;999.90;;;27.10;80.40;;;;;;4993792;28;20117;-80
2021/08/22 09:19:55;;;;;;;1999.90;999.90;;;27.30;81.20;;;;;;4984692;28;20030;-86
2021/08/22 09:22:55;;;;;;;1999.90;999.90;;;27.40;79.60;;;;;;4994806;28;20027;-85
2021/08/22 09:25:36;;;;;;;1999.90;999.90;;;27.40;79.10;;;;;;4993766;28;20033;-86
2021/08/22 09:28:40;;;;;;;1999.90;999.90;;;27.50;77.90;;;;;;4994491;28;20026;-79
2021/08/22 09:31:43;;;;;;;1999.90;999.90;;;27.60;77.20;;;;;;4993810;28;20027;-82
2021/08/22 09:34:27;;;;;;;1999.90;999.90;;;27.70;76.30;;;;;;4994036;28;20050;-85
2021/08/22 09:37:25;;;;;;;1999.90;999.90;;;27.80;73.20;;;;;;4997642;28;20034;-87
2021/08/22 09:40:21;;;;;;;1999.90;999.90;;;27.70;71.80;;;;;;4993765;28;20022;-86
2021/08/22 09:43:15;;;;;;;1999.90;999.90;;;27.70;75.70;;;;;;4995469;28;20022;-88
2021/08/22 09:46:14;;;;;;;1999.90;999.90;;;27.80;78.30;;;;;;4996367;28;20030;-86
2021/08/22 09:49:19;;;;;;;1999.90;999.90;;;27.80;77.60;;;;;;4994507;28;20450;-86
2021/08/22 09:51:48;;;;;;;1999.90;999.90;;;27.90;79.40;;;;;;4993964;28;20559;-85
2021/08/22 09:54:13;;;;;;;1999.90;999.90;;;27.70;77.70;;;;;;4994407;28;20023;-86
2021/08/22 09:57:03;;;;;;;1999.90;999.90;;;27.80;78.00;;;;;;4995126;28;20030;-84
2021/08/22 09:59:41;;;;;;;1999.90;999.90;;;27.80;79.10;;;;;;4994297;28;20474;-83
2021/08/22 10:02:22;;;;;;;1999.90;999.90;;;27.80;78.70;;;;;;4994352;28;20038;-84
2021/08/22 10:05:09;;;;;;;1999.90;999.90;;;27.70;78.10;;;;;;4994238;28;20053;-87
2021/08/22 10:08:03;;;;;;;1999.90;999.90;;;27.80;78.10;;;;;;4993938;28;20088;-84
2021/08/22 10:10:56;;;;;;;1999.90;999.90;;;27.90;78.30;;;;;;4980866;28;20066;-85
2021/08/22 10:13:22;;;;;;;1999.90;999.90;;;27.90;78.70;;;;;;4994163;28;20042;-84
2021/08/22 10:15:49;;;;;;;1999.90;999.90;;;28.10;78.00;;;;;;4994193;28;20023;-85
2021/08/22 10:18:25;;;;;;;1999.90;999.90;;;28.20;74.50;;;;;;4993914;28;20117;-86
2021/08/22 10:20:53;;;;;;;1999.90;999.90;;;28.30;73.60;;;;;;4993844;28;20100;-81
2021/08/22 10:23:54;;;;;;;1999.90;999.90;;;28.50;73.10;;;;;;4993588;28;20027;-82
2021/08/22 10:26:50;;;;;;;1999.90;999.90;;;28.50;71.10;;;;;;4994445;28;20056;-83
2021/08/22 10:29:30;;;;;;;1999.90;999.90;;;28.60;71.70;;;;;;4996652;28;20034;-81
2021/08/22 10:31:56;;;;;;;1999.90;999.90;;;28.80;70.90;;;;;;4997723;28;20037;-82
2021/08/22 10:34:22;;;;;;;1999.90;999.90;;;28.90;70.60;;;;;;4997314;28;20026;-81
2021/08/22 10:36:48;;;;;;;1999.90;999.90;;;28.90;70.20;;;;;;4996813;28;20018;-82
2021/08/22 10:39:25;;;;;;;1999.90;999.90;;;29.00;70.90;;;;;;4997144;28;20077;-83
2021/08/22 10:42:15;;;;;;;1999.90;999.90;;;29.10;71.30;;;;;;4999364;28;20037;-88
2021/08/22 10:44:41;;;;;;;1999.90;999.90;;;29.20;71.90;;;;;;4994488;28;20038;-84
2021/08/22 10:47:10;;;;;;;1999.90;999.90;;;29.30;70.50;;;;;;4997195;28;20061;-82
2021/08/22 10:49:51;;;;;;;1999.90;999.90;;;29.40;71.00;;;;;;4999617;28;20018;-84
2021/08/22 10:52:32;;;;;;;1999.90;999.90;;;29.30;70.70;;;;;;4999421;28;20050;-87
2021/08/22 10:55:13;;;;;;;1999.90;999.90;;;29.20;70.00;;;;;;4997909;28;20036;-84
2021/08/22 10:57:53;;;;;;;1999.90;999.90;;;28.90;69.80;;;;;;4999788;28;20022;-90
2021/08/22 11:00:25;;;;;;;1999.90;999.90;;;28.80;71.10;;;;;;5004048;28;20049;-79
2021/08/22 11:02:56;;;;;;;1999.90;999.90;;;28.80;72.10;;;;;;4996269;28;20026;-76
2021/08/22 11:05:26;;;;;;;1999.90;999.90;;;28.80;71.70;;;;;;4996604;28;20041;-76
2021/08/22 11:07:55;;;;;;;1999.90;999.90;;;28.90;71.60;;;;;;4996771;28;20034;-81
2021/08/22 11:10:22;;;;;;;1999.90;999.90;;;29.00;73.20;;;;;;4996361;28;20497;-80
2021/08/22 11:12:52;;;;;;;1999.90;999.90;;;29.00;73.10;;;;;;4996407;28;20042;-80
2021/08/22 11:15:36;;;;;;;1999.90;999.90;;;29.10;73.50;;;;;;4996616;28;20026;-82
2021/08/22 11:18:02;;;;;;;1999.90;999.90;;;29.00;71.60;;;;;;4996827;28;20122;-82
2021/08/22 11:20:30;;;;;;;1999.90;999.90;;;28.90;71.30;;;;;;4996606;28;20054;-82
2021/08/22 11:23:07;;;;;;;1999.90;999.90;;;28.90;70.90;;;;;;4996876;28;20026;-81
2021/08/22 11:25:35;;;;;;;1999.90;999.90;;;28.80;70.20;;;;;;4996355;28;20114;-81
2021/08/22 11:28:10;;;;;;;1999.90;999.90;;;28.80;71.00;;;;;;4996185;28;20057;-82
2021/08/22 11:30:37;;;;;;;1999.90;999.90;;;28.80;70.00;;;;;;4996685;28;20109;-88
2021/08/22 11:33:04;;;;;;;1999.90;999.90;;;28.90;68.80;;;;;;4996441;28;20034;-85
2021/08/22 11:35:30;;;;;;;1999.90;999.90;;;28.90;68.60;;;;;;4996729;28;20109;-86
2021/08/22 11:37:59;;;;;;;1999.90;999.90;;;29.00;70.60;;;;;;4997157;28;20031;-86
2021/08/22 11:40:26;;;;;;;1999.90;999.90;;;29.00;68.20;;;;;;4996396;28;20077;-84
2021/08/22 11:42:58;;;;;;;1999.90;999.90;;;29.10;68.10;;;;;;4997155;28;20022;-86
2021/08/22 11:45:30;;;;;;;1999.90;999.90;;;29.10;67.00;;;;;;4995911;28;20033;-87
2021/08/22 11:47:57;;;;;;;1999.90;999.90;;;29.30;66.70;;;;;;4996378;28;20026;-87
2021/08/22 11:50:28;;;;;;;1999.90;999.90;;;29.30;65.90;;;;;;4996655;28;20030;-88
2021/08/22 11:52:56;;;;;;;1999.90;999.90;;;29.40;66.00;;;;;;4996424;28;20054;-88
2021/08/22 11:55:23;;;;;;;1999.90;999.90;;;29.50;66.40;;;;;;4996318;28;20029;-88
2021/08/22 11:57:50;;;;;;;1999.90;999.90;;;29.40;65.30;;;;;;4997038;28;20474;-87
2021/08/22 12:00:19;;;;;;;1999.90;999.90;;;29.50;66.40;;;;;;4996202;28;20029;-88
2021/08/22 12:03:01;;;;;;;1999.90;999.90;;;29.60;66.40;;;;;;4996117;28;20026;-87
2021/08/22 12:05:31;;;;;;;1999.90;999.90;;;29.80;67.20;;;;;;4995878;28;20030;-88
2021/08/22 12:08:09;;;;;;;1999.90;999.90;;;29.90;66.00;;;;;;4996525;28;20125;-86
2021/08/22 12:10:37;;;;;;;1999.90;999.90;;;30.00;66.00;;;;;;4996300;28;20466;-88
2021/08/22 12:13:04;;;;;;;1999.90;999.90;;;30.00;65.60;;;;;;4996431;28;20044;-88